sensor_id;sensor_type;location;lat;lon;timestamp;P1;durP1;ratioP1;P2;durP2;ratioP2
56999;SDS011;42891;50.006;21.964;2023-05-19T00:02:40;11.18;;;6.63;;
56999;SDS011;42891;50.006;21.964;2023-05-19T00:06:42;13.60;;;7.22;;
56999;SDS011;42891;50.006;21.964;2023-05-19T00:10:49;12.73;;;7.47;;
56999;SDS011;42891;50.006;21.964;2023-05-19T00:14:50;15.10;;;7.65;;
56999;SDS011;42891;50.006;21.964;2023-05-19T00:18:50;14.70;;;7.32;;
56999;SDS011;42891;50.006;21.964;2023-05-19T00:22:52;12.63;;;6.60;;
56999;SDS011;42891;50.006;21.964;2023-05-19T00:26:52;15.98;;;7.82;;
56999;SDS011;42891;50.006;21.964;2023-05-19T00:30:53;16.95;;;8.00;;
56999;SDS011;42891;50.006;21.964;2023-05-19T00:34:54;11.70;;;7.07;;
56999;SDS011;42891;50.006;21.964;2023-05-19T00:38:54;13.95;;;7.43;;
56999;SDS011;42891;50.006;21.964;2023-05-19T00:42:55;16.50;;;10.67;;
56999;SDS011;42891;50.006;21.964;2023-05-19T00:46:55;14.00;;;9.25;;
56999;SDS011;42891;50.006;21.964;2023-05-19T00:50:57;13.77;;;8.65;;
56999;SDS011;42891;50.006;21.964;2023-05-19T00:55:03;11.85;;;7.68;;
56999;SDS011;42891;50.006;21.964;2023-05-19T00:59:04;12.02;;;7.47;;
56999;SDS011;42891;50.006;21.964;2023-05-19T01:03:05;12.95;;;7.15;;
56999;SDS011;42891;50.006;21.964;2023-05-19T01:07:11;12.23;;;7.32;;
56999;SDS011;42891;50.006;21.964;2023-05-19T01:11:12;13.15;;;8.27;;
56999;SDS011;42891;50.006;21.964;2023-05-19T01:15:12;18.85;;;12.27;;
56999;SDS011;42891;50.006;21.964;2023-05-19T01:19:20;18.13;;;9.70;;
56999;SDS011;42891;50.006;21.964;2023-05-19T01:31:50;10.48;;;6.72;;
56999;SDS011;42891;50.006;21.964;2023-05-19T01:35:54;12.35;;;6.70;;
56999;SDS011;42891;50.006;21.964;2023-05-19T01:39:55;12.05;;;7.07;;
56999;SDS011;42891;50.006;21.964;2023-05-19T01:43:56;11.93;;;7.40;;
56999;SDS011;42891;50.006;21.964;2023-05-19T01:47:58;9.60;;;6.68;;
56999;SDS011;42891;50.006;21.964;2023-05-19T01:52:01;11.10;;;6.50;;
56999;SDS011;42891;50.006;21.964;2023-05-19T01:56:01;11.45;;;6.68;;
56999;SDS011;42891;50.006;21.964;2023-05-19T02:00:10;9.57;;;7.05;;
56999;SDS011;42891;50.006;21.964;2023-05-19T02:04:28;12.73;;;7.57;;
56999;SDS011;42891;50.006;21.964;2023-05-19T02:08:42;12.17;;;7.50;;
56999;SDS011;42891;50.006;21.964;2023-05-19T02:12:47;12.50;;;7.57;;
56999;SDS011;42891;50.006;21.964;2023-05-19T02:20:55;13.07;;;6.82;;
56999;SDS011;42891;50.006;21.964;2023-05-19T02:24:55;12.70;;;6.30;;
56999;SDS011;42891;50.006;21.964;2023-05-19T02:28:56;10.27;;;6.38;;
56999;SDS011;42891;50.006;21.964;2023-05-19T02:32:56;12.57;;;7.10;;
56999;SDS011;42891;50.006;21.964;2023-05-19T02:36:57;8.45;;;6.25;;
56999;SDS011;42891;50.006;21.964;2023-05-19T02:40:57;12.35;;;6.80;;
56999;SDS011;42891;50.006;21.964;2023-05-19T02:44:58;10.70;;;6.07;;
56999;SDS011;42891;50.006;21.964;2023-05-19T02:48:59;11.75;;;6.00;;
56999;SDS011;42891;50.006;21.964;2023-05-19T02:52:59;12.17;;;5.83;;
56999;SDS011;42891;50.006;21.964;2023-05-19T02:57:00;9.48;;;5.85;;
56999;SDS011;42891;50.006;21.964;2023-05-19T03:01:00;9.25;;;6.28;;
56999;SDS011;42891;50.006;21.964;2023-05-19T03:05:01;11.27;;;7.15;;
56999;SDS011;42891;50.006;21.964;2023-05-19T03:09:02;7.32;;;6.13;;
56999;SDS011;42891;50.006;21.964;2023-05-19T03:13:03;9.90;;;6.35;;
56999;SDS011;42891;50.006;21.964;2023-05-19T03:17:03;10.35;;;6.03;;
56999;SDS011;42891;50.006;21.964;2023-05-19T03:21:06;9.57;;;5.60;;
56999;SDS011;42891;50.006;21.964;2023-05-19T03:25:06;8.85;;;5.75;;
56999;SDS011;42891;50.006;21.964;2023-05-19T03:29:07;8.30;;;5.95;;
56999;SDS011;42891;50.006;21.964;2023-05-19T03:33:08;9.00;;;6.10;;
56999;SDS011;42891;50.006;21.964;2023-05-19T03:37:08;7.72;;;6.07;;
56999;SDS011;42891;50.006;21.964;2023-05-19T03:41:09;8.85;;;5.60;;
56999;SDS011;42891;50.006;21.964;2023-05-19T03:45:10;6.97;;;5.03;;
56999;SDS011;42891;50.006;21.964;2023-05-19T03:49:10;9.35;;;6.45;;
56999;SDS011;42891;50.006;21.964;2023-05-19T03:53:10;10.47;;;7.23;;
56999;SDS011;42891;50.006;21.964;2023-05-19T03:57:12;9.40;;;6.38;;
56999;SDS011;42891;50.006;21.964;2023-05-19T04:01:13;7.28;;;5.07;;
56999;SDS011;42891;50.006;21.964;2023-05-19T04:05:13;8.02;;;4.72;;
56999;SDS011;42891;50.006;21.964;2023-05-19T04:09:14;7.57;;;5.03;;
56999;SDS011;42891;50.006;21.964;2023-05-19T04:13:15;8.60;;;5.63;;
56999;SDS011;42891;50.006;21.964;2023-05-19T04:17:15;9.77;;;5.40;;
56999;SDS011;42891;50.006;21.964;2023-05-19T04:21:15;8.63;;;5.30;;
56999;SDS011;42891;50.006;21.964;2023-05-19T04:25:16;5.38;;;4.70;;
56999;SDS011;42891;50.006;21.964;2023-05-19T04:29:16;7.68;;;4.47;;
56999;SDS011;42891;50.006;21.964;2023-05-19T04:33:16;7.43;;;4.50;;
56999;SDS011;42891;50.006;21.964;2023-05-19T04:37:19;7.82;;;4.05;;
56999;SDS011;42891;50.006;21.964;2023-05-19T04:41:19;6.63;;;4.75;;
56999;SDS011;42891;50.006;21.964;2023-05-19T04:45:20;6.45;;;4.63;;
56999;SDS011;42891;50.006;21.964;2023-05-19T04:49:22;7.90;;;5.45;;
56999;SDS011;42891;50.006;21.964;2023-05-19T04:53:23;7.22;;;4.53;;
56999;SDS011;42891;50.006;21.964;2023-05-19T04:57:24;6.40;;;4.75;;
56999;SDS011;42891;50.006;21.964;2023-05-19T05:01:24;7.03;;;5.15;;
56999;SDS011;42891;50.006;21.964;2023-05-19T05:05:25;9.10;;;5.50;;
56999;SDS011;42891;50.006;21.964;2023-05-19T05:09:26;7.00;;;4.50;;
56999;SDS011;42891;50.006;21.964;2023-05-19T05:13:27;8.80;;;5.00;;
56999;SDS011;42891;50.006;21.964;2023-05-19T05:17:27;6.78;;;4.85;;
56999;SDS011;42891;50.006;21.964;2023-05-19T05:21:28;8.82;;;5.05;;
56999;SDS011;42891;50.006;21.964;2023-05-19T05:25:29;9.05;;;6.10;;
56999;SDS011;42891;50.006;21.964;2023-05-19T05:29:29;10.25;;;6.70;;
56999;SDS011;42891;50.006;21.964;2023-05-19T05:33:29;8.68;;;5.63;;
56999;SDS011;42891;50.006;21.964;2023-05-19T05:37:30;13.18;;;8.20;;
56999;SDS011;42891;50.006;21.964;2023-05-19T05:41:31;13.88;;;7.95;;
56999;SDS011;42891;50.006;21.964;2023-05-19T05:45:34;13.63;;;7.65;;
56999;SDS011;42891;50.006;21.964;2023-05-19T05:49:34;9.52;;;5.97;;
56999;SDS011;42891;50.006;21.964;2023-05-19T05:53:39;9.80;;;6.28;;
56999;SDS011;42891;50.006;21.964;2023-05-19T05:57:42;11.23;;;5.63;;
56999;SDS011;42891;50.006;21.964;2023-05-19T06:01:42;10.60;;;6.38;;
56999;SDS011;42891;50.006;21.964;2023-05-19T06:05:42;11.70;;;7.15;;
56999;SDS011;42891;50.006;21.964;2023-05-19T06:09:43;12.97;;;8.03;;
56999;SDS011;42891;50.006;21.964;2023-05-19T06:13:43;14.40;;;10.60;;
56999;SDS011;42891;50.006;21.964;2023-05-19T06:17:43;9.45;;;6.45;;
56999;SDS011;42891;50.006;21.964;2023-05-19T06:21:44;12.25;;;9.70;;
56999;SDS011;42891;50.006;21.964;2023-05-19T06:25:44;9.18;;;7.63;;
56999;SDS011;42891;50.006;21.964;2023-05-19T06:29:45;8.10;;;5.13;;
56999;SDS011;42891;50.006;21.964;2023-05-19T06:33:45;5.57;;;4.43;;
56999;SDS011;42891;50.006;21.964;2023-05-19T06:37:45;9.43;;;5.03;;
56999;SDS011;42891;50.006;21.964;2023-05-19T06:41:46;6.85;;;5.47;;
56999;SDS011;42891;50.006;21.964;2023-05-19T06:45:46;9.40;;;6.55;;
56999;SDS011;42891;50.006;21.964;2023-05-19T06:49:46;11.90;;;7.53;;
56999;SDS011;42891;50.006;21.964;2023-05-19T06:53:53;10.25;;;7.18;;
56999;SDS011;42891;50.006;21.964;2023-05-19T06:57:54;11.60;;;7.25;;
56999;SDS011;42891;50.006;21.964;2023-05-19T07:01:55;12.50;;;7.78;;
56999;SDS011;42891;50.006;21.964;2023-05-19T07:05:55;10.90;;;7.85;;
56999;SDS011;42891;50.006;21.964;2023-05-19T07:09:56;12.30;;;8.98;;
56999;SDS011;42891;50.006;21.964;2023-05-19T07:13:56;9.90;;;7.50;;
56999;SDS011;42891;50.006;21.964;2023-05-19T07:17:57;10.88;;;6.65;;
56999;SDS011;42891;50.006;21.964;2023-05-19T07:21:57;9.23;;;6.88;;
56999;SDS011;42891;50.006;21.964;2023-05-19T07:25:58;9.95;;;7.18;;
56999;SDS011;42891;50.006;21.964;2023-05-19T07:29:58;11.03;;;7.00;;
56999;SDS011;42891;50.006;21.964;2023-05-19T07:33:59;12.85;;;9.48;;
56999;SDS011;42891;50.006;21.964;2023-05-19T07:37:59;11.82;;;8.82;;
56999;SDS011;42891;50.006;21.964;2023-05-19T07:42:00;11.13;;;7.80;;
56999;SDS011;42891;50.006;21.964;2023-05-19T07:46:00;11.45;;;8.80;;
56999;SDS011;42891;50.006;21.964;2023-05-19T07:50:01;11.27;;;8.55;;
56999;SDS011;42891;50.006;21.964;2023-05-19T07:54:01;13.15;;;10.18;;
56999;SDS011;42891;50.006;21.964;2023-05-19T07:58:02;20.30;;;11.50;;
56999;SDS011;42891;50.006;21.964;2023-05-19T08:02:02;12.43;;;9.80;;
56999;SDS011;42891;50.006;21.964;2023-05-19T08:06:02;11.85;;;8.73;;
56999;SDS011;42891;50.006;21.964;2023-05-19T08:10:03;18.40;;;12.10;;
56999;SDS011;42891;50.006;21.964;2023-05-19T08:14:04;14.00;;;9.75;;
56999;SDS011;42891;50.006;21.964;2023-05-19T08:18:04;12.55;;;8.65;;
56999;SDS011;42891;50.006;21.964;2023-05-19T08:22:05;14.23;;;9.77;;
56999;SDS011;42891;50.006;21.964;2023-05-19T08:26:05;17.75;;;11.95;;
56999;SDS011;42891;50.006;21.964;2023-05-19T08:30:05;20.02;;;14.63;;
56999;SDS011;42891;50.006;21.964;2023-05-19T08:34:07;21.60;;;13.30;;
56999;SDS011;42891;50.006;21.964;2023-05-19T08:38:07;21.53;;;13.57;;
56999;SDS011;42891;50.006;21.964;2023-05-19T08:42:07;23.02;;;18.20;;
56999;SDS011;42891;50.006;21.964;2023-05-19T08:46:09;22.70;;;15.50;;
56999;SDS011;42891;50.006;21.964;2023-05-19T08:50:13;13.57;;;10.15;;
56999;SDS011;42891;50.006;21.964;2023-05-19T08:54:20;17.00;;;12.10;;
56999;SDS011;42891;50.006;21.964;2023-05-19T08:58:24;19.55;;;15.68;;
56999;SDS011;42891;50.006;21.964;2023-05-19T09:02:26;26.25;;;15.23;;
56999;SDS011;42891;50.006;21.964;2023-05-19T09:06:27;17.38;;;12.63;;
56999;SDS011;42891;50.006;21.964;2023-05-19T09:10:31;25.42;;;18.52;;
56999;SDS011;42891;50.006;21.964;2023-05-19T09:14:31;12.70;;;9.30;;
56999;SDS011;42891;50.006;21.964;2023-05-19T09:18:32;12.30;;;8.82;;
56999;SDS011;42891;50.006;21.964;2023-05-19T09:22:32;16.45;;;12.48;;
56999;SDS011;42891;50.006;21.964;2023-05-19T09:26:36;20.38;;;15.10;;
56999;SDS011;42891;50.006;21.964;2023-05-19T09:30:37;26.90;;;16.33;;
56999;SDS011;42891;50.006;21.964;2023-05-19T09:34:41;21.55;;;17.05;;
56999;SDS011;42891;50.006;21.964;2023-05-19T09:38:42;21.08;;;15.52;;
56999;SDS011;42891;50.006;21.964;2023-05-19T09:42:45;14.35;;;11.48;;
56999;SDS011;42891;50.006;21.964;2023-05-19T09:46:48;21.98;;;16.35;;
56999;SDS011;42891;50.006;21.964;2023-05-19T09:50:50;15.32;;;12.45;;
56999;SDS011;42891;50.006;21.964;2023-05-19T09:54:52;15.82;;;11.60;;
56999;SDS011;42891;50.006;21.964;2023-05-19T09:58:54;14.35;;;10.35;;
56999;SDS011;42891;50.006;21.964;2023-05-19T10:02:54;16.30;;;11.05;;
56999;SDS011;42891;50.006;21.964;2023-05-19T10:06:57;17.95;;;13.70;;
56999;SDS011;42891;50.006;21.964;2023-05-19T10:10:58;21.17;;;16.65;;
56999;SDS011;42891;50.006;21.964;2023-05-19T10:14:59;14.77;;;12.35;;
56999;SDS011;42891;50.006;21.964;2023-05-19T10:19:00;13.65;;;11.15;;
56999;SDS011;42891;50.006;21.964;2023-05-19T10:23:01;15.00;;;12.18;;
56999;SDS011;42891;50.006;21.964;2023-05-19T10:27:04;14.85;;;10.77;;
56999;SDS011;42891;50.006;21.964;2023-05-19T10:39:41;20.02;;;14.60;;
56999;SDS011;42891;50.006;21.964;2023-05-19T10:47:43;17.47;;;12.70;;
56999;SDS011;42891;50.006;21.964;2023-05-19T10:51:43;15.90;;;11.88;;
56999;SDS011;42891;50.006;21.964;2023-05-19T10:55:45;20.35;;;12.15;;
56999;SDS011;42891;50.006;21.964;2023-05-19T10:59:55;18.83;;;11.50;;
56999;SDS011;42891;50.006;21.964;2023-05-19T11:03:56;12.77;;;11.02;;
56999;SDS011;42891;50.006;21.964;2023-05-19T11:07:57;15.85;;;11.60;;
56999;SDS011;42891;50.006;21.964;2023-05-19T11:12:05;14.68;;;10.82;;
56999;SDS011;42891;50.006;21.964;2023-05-19T11:16:06;12.07;;;10.10;;
56999;SDS011;42891;50.006;21.964;2023-05-19T11:20:08;17.88;;;11.68;;
56999;SDS011;42891;50.006;21.964;2023-05-19T11:25:05;17.45;;;11.38;;
56999;SDS011;42891;50.006;21.964;2023-05-19T11:28:44;12.05;;;9.95;;
56999;SDS011;42891;50.006;21.964;2023-05-19T11:32:47;16.77;;;13.40;;
56999;SDS011;42891;50.006;21.964;2023-05-19T11:36:47;16.02;;;11.52;;
56999;SDS011;42891;50.006;21.964;2023-05-19T11:40:47;14.73;;;10.57;;
56999;SDS011;42891;50.006;21.964;2023-05-19T11:44:53;13.07;;;10.75;;
56999;SDS011;42891;50.006;21.964;2023-05-19T11:48:54;13.90;;;10.43;;
56999;SDS011;42891;50.006;21.964;2023-05-19T11:52:55;15.20;;;12.95;;
56999;SDS011;42891;50.006;21.964;2023-05-19T11:56:56;20.05;;;15.02;;
56999;SDS011;42891;50.006;21.964;2023-05-19T12:01:02;23.00;;;16.38;;
56999;SDS011;42891;50.006;21.964;2023-05-19T12:05:03;19.17;;;15.05;;
56999;SDS011;42891;50.006;21.964;2023-05-19T12:09:04;17.50;;;12.75;;
56999;SDS011;42891;50.006;21.964;2023-05-19T12:13:05;15.57;;;13.45;;
56999;SDS011;42891;50.006;21.964;2023-05-19T12:17:09;19.33;;;14.13;;
56999;SDS011;42891;50.006;21.964;2023-05-19T12:21:14;13.45;;;11.50;;
56999;SDS011;42891;50.006;21.964;2023-05-19T12:25:14;13.07;;;11.55;;
56999;SDS011;42891;50.006;21.964;2023-05-19T12:29:15;13.05;;;11.13;;
56999;SDS011;42891;50.006;21.964;2023-05-19T12:33:16;17.05;;;13.80;;
56999;SDS011;42891;50.006;21.964;2023-05-19T12:37:18;17.85;;;14.88;;
56999;SDS011;42891;50.006;21.964;2023-05-19T12:41:18;22.05;;;15.98;;
56999;SDS011;42891;50.006;21.964;2023-05-19T12:45:19;18.75;;;13.60;;
56999;SDS011;42891;50.006;21.964;2023-05-19T12:49:22;16.45;;;12.02;;
56999;SDS011;42891;50.006;21.964;2023-05-19T12:53:24;18.70;;;12.90;;
56999;SDS011;42891;50.006;21.964;2023-05-19T12:57:28;19.40;;;13.60;;
56999;SDS011;42891;50.006;21.964;2023-05-19T13:01:31;16.88;;;12.43;;
56999;SDS011;42891;50.006;21.964;2023-05-19T13:05:39;17.40;;;11.60;;
56999;SDS011;42891;50.006;21.964;2023-05-19T13:09:42;13.60;;;11.55;;
56999;SDS011;42891;50.006;21.964;2023-05-19T13:13:43;13.82;;;10.88;;
56999;SDS011;42891;50.006;21.964;2023-05-19T13:17:44;14.40;;;12.18;;
56999;SDS011;42891;50.006;21.964;2023-05-19T13:21:45;14.45;;;11.73;;
56999;SDS011;42891;50.006;21.964;2023-05-19T13:25:51;14.63;;;11.90;;
56999;SDS011;42891;50.006;21.964;2023-05-19T13:29:51;19.80;;;13.13;;
56999;SDS011;42891;50.006;21.964;2023-05-19T13:33:52;16.00;;;11.75;;
56999;SDS011;42891;50.006;21.964;2023-05-19T13:37:52;15.95;;;12.95;;
56999;SDS011;42891;50.006;21.964;2023-05-19T13:41:52;14.95;;;12.20;;
56999;SDS011;42891;50.006;21.964;2023-05-19T13:45:53;17.73;;;12.73;;
56999;SDS011;42891;50.006;21.964;2023-05-19T13:49:53;13.93;;;12.02;;
56999;SDS011;42891;50.006;21.964;2023-05-19T13:53:53;19.77;;;14.90;;
56999;SDS011;42891;50.006;21.964;2023-05-19T13:57:54;13.70;;;12.17;;
56999;SDS011;42891;50.006;21.964;2023-05-19T14:01:54;14.33;;;12.27;;
56999;SDS011;42891;50.006;21.964;2023-05-19T14:05:54;16.92;;;13.75;;
56999;SDS011;42891;50.006;21.964;2023-05-19T14:09:55;17.25;;;13.85;;
56999;SDS011;42891;50.006;21.964;2023-05-19T14:13:55;18.95;;;14.38;;
56999;SDS011;42891;50.006;21.964;2023-05-19T14:17:56;15.35;;;13.18;;
56999;SDS011;42891;50.006;21.964;2023-05-19T14:21:57;18.88;;;14.57;;
56999;SDS011;42891;50.006;21.964;2023-05-19T14:25:58;18.95;;;15.98;;
56999;SDS011;42891;50.006;21.964;2023-05-19T14:29:58;19.42;;;15.57;;
56999;SDS011;42891;50.006;21.964;2023-05-19T14:33:59;20.00;;;16.25;;
56999;SDS011;42891;50.006;21.964;2023-05-19T14:37:59;20.25;;;16.17;;
56999;SDS011;42891;50.006;21.964;2023-05-19T14:41:59;20.23;;;15.73;;
56999;SDS011;42891;50.006;21.964;2023-05-19T14:46:00;18.77;;;15.65;;
56999;SDS011;42891;50.006;21.964;2023-05-19T14:50:00;21.27;;;16.40;;
56999;SDS011;42891;50.006;21.964;2023-05-19T14:54:00;19.08;;;15.68;;
56999;SDS011;42891;50.006;21.964;2023-05-19T14:58:01;20.75;;;16.90;;
56999;SDS011;42891;50.006;21.964;2023-05-19T15:02:01;19.38;;;15.32;;
56999;SDS011;42891;50.006;21.964;2023-05-19T15:06:01;20.00;;;16.67;;
56999;SDS011;42891;50.006;21.964;2023-05-19T15:10:02;20.42;;;16.15;;
56999;SDS011;42891;50.006;21.964;2023-05-19T15:14:03;21.85;;;17.30;;
56999;SDS011;42891;50.006;21.964;2023-05-19T15:18:03;21.70;;;17.07;;
56999;SDS011;42891;50.006;21.964;2023-05-19T15:22:04;20.25;;;15.68;;
56999;SDS011;42891;50.006;21.964;2023-05-19T15:26:04;24.63;;;17.10;;
56999;SDS011;42891;50.006;21.964;2023-05-19T15:30:05;21.92;;;16.15;;
56999;SDS011;42891;50.006;21.964;2023-05-19T15:34:05;21.17;;;15.90;;
56999;SDS011;42891;50.006;21.964;2023-05-19T15:38:06;20.00;;;16.02;;
56999;SDS011;42891;50.006;21.964;2023-05-19T15:42:06;21.67;;;17.83;;
56999;SDS011;42891;50.006;21.964;2023-05-19T15:46:06;24.55;;;18.65;;
56999;SDS011;42891;50.006;21.964;2023-05-19T15:50:07;28.55;;;21.58;;
56999;SDS011;42891;50.006;21.964;2023-05-19T15:54:08;28.95;;;20.27;;
56999;SDS011;42891;50.006;21.964;2023-05-19T15:58:08;27.73;;;19.27;;
56999;SDS011;42891;50.006;21.964;2023-05-19T16:02:09;26.20;;;19.65;;
56999;SDS011;42891;50.006;21.964;2023-05-19T16:06:10;25.15;;;18.65;;
56999;SDS011;42891;50.006;21.964;2023-05-19T16:10:10;24.98;;;17.08;;
56999;SDS011;42891;50.006;21.964;2023-05-19T16:14:10;26.35;;;18.25;;
56999;SDS011;42891;50.006;21.964;2023-05-19T16:18:11;22.63;;;16.30;;
56999;SDS011;42891;50.006;21.964;2023-05-19T16:22:11;21.52;;;16.63;;
56999;SDS011;42891;50.006;21.964;2023-05-19T16:26:12;20.42;;;16.23;;
56999;SDS011;42891;50.006;21.964;2023-05-19T16:30:12;20.35;;;16.23;;
56999;SDS011;42891;50.006;21.964;2023-05-19T16:34:13;23.02;;;16.45;;
56999;SDS011;42891;50.006;21.964;2023-05-19T16:38:13;21.70;;;15.88;;
56999;SDS011;42891;50.006;21.964;2023-05-19T16:42:13;24.38;;;15.75;;
56999;SDS011;42891;50.006;21.964;2023-05-19T16:46:14;17.70;;;14.85;;
56999;SDS011;42891;50.006;21.964;2023-05-19T16:50:14;24.30;;;17.20;;
56999;SDS011;42891;50.006;21.964;2023-05-19T16:54:14;20.90;;;16.30;;
56999;SDS011;42891;50.006;21.964;2023-05-19T16:58:15;23.37;;;17.13;;
56999;SDS011;42891;50.006;21.964;2023-05-19T17:02:15;19.27;;;15.80;;
56999;SDS011;42891;50.006;21.964;2023-05-19T17:06:15;18.17;;;14.93;;
56999;SDS011;42891;50.006;21.964;2023-05-19T17:10:16;24.50;;;16.65;;
56999;SDS011;42891;50.006;21.964;2023-05-19T17:14:16;21.10;;;16.00;;
56999;SDS011;42891;50.006;21.964;2023-05-19T17:18:19;20.80;;;15.07;;
56999;SDS011;42891;50.006;21.964;2023-05-19T17:22:20;18.75;;;15.02;;
56999;SDS011;42891;50.006;21.964;2023-05-19T17:26:20;20.35;;;15.32;;
56999;SDS011;42891;50.006;21.964;2023-05-19T17:30:21;22.50;;;13.73;;
56999;SDS011;42891;50.006;21.964;2023-05-19T17:34:21;18.85;;;15.25;;
56999;SDS011;42891;50.006;21.964;2023-05-19T17:38:21;20.90;;;16.60;;
56999;SDS011;42891;50.006;21.964;2023-05-19T17:42:22;23.05;;;16.25;;
56999;SDS011;42891;50.006;21.964;2023-05-19T17:46:22;22.73;;;15.77;;
56999;SDS011;42891;50.006;21.964;2023-05-19T17:50:22;25.83;;;17.10;;
56999;SDS011;42891;50.006;21.964;2023-05-19T17:54:23;28.33;;;18.98;;
56999;SDS011;42891;50.006;21.964;2023-05-19T17:58:25;25.35;;;19.20;;
56999;SDS011;42891;50.006;21.964;2023-05-19T18:02:26;25.70;;;18.52;;
56999;SDS011;42891;50.006;21.964;2023-05-19T18:06:27;34.35;;;28.13;;
56999;SDS011;42891;50.006;21.964;2023-05-19T18:10:28;52.72;;;37.78;;
56999;SDS011;42891;50.006;21.964;2023-05-19T18:14:30;55.67;;;39.60;;
56999;SDS011;42891;50.006;21.964;2023-05-19T18:18:30;29.17;;;21.27;;
56999;SDS011;42891;50.006;21.964;2023-05-19T18:22:32;33.50;;;21.08;;
56999;SDS011;42891;50.006;21.964;2023-05-19T18:26:32;29.85;;;21.73;;
56999;SDS011;42891;50.006;21.964;2023-05-19T18:30:33;27.25;;;21.42;;
56999;SDS011;42891;50.006;21.964;2023-05-19T18:34:33;32.92;;;21.88;;
56999;SDS011;42891;50.006;21.964;2023-05-19T18:38:34;32.47;;;22.45;;
56999;SDS011;42891;50.006;21.964;2023-05-19T18:42:34;33.13;;;23.63;;
56999;SDS011;42891;50.006;21.964;2023-05-19T18:46:34;34.23;;;24.37;;
56999;SDS011;42891;50.006;21.964;2023-05-19T18:50:35;36.70;;;26.48;;
56999;SDS011;42891;50.006;21.964;2023-05-19T18:54:35;42.07;;;26.57;;
56999;SDS011;42891;50.006;21.964;2023-05-19T18:58:37;43.85;;;28.98;;
56999;SDS011;42891;50.006;21.964;2023-05-19T19:02:37;42.03;;;28.70;;
56999;SDS011;42891;50.006;21.964;2023-05-19T19:06:37;41.93;;;27.53;;
56999;SDS011;42891;50.006;21.964;2023-05-19T19:10:38;43.90;;;28.27;;
56999;SDS011;42891;50.006;21.964;2023-05-19T19:14:39;37.17;;;29.02;;
56999;SDS011;42891;50.006;21.964;2023-05-19T19:18:39;44.88;;;32.00;;
56999;SDS011;42891;50.006;21.964;2023-05-19T19:22:40;52.97;;;33.33;;
56999;SDS011;42891;50.006;21.964;2023-05-19T19:26:40;56.38;;;34.10;;
56999;SDS011;42891;50.006;21.964;2023-05-19T19:30:41;48.35;;;33.00;;
56999;SDS011;42891;50.006;21.964;2023-05-19T19:34:41;38.20;;;27.15;;
56999;SDS011;42891;50.006;21.964;2023-05-19T19:38:41;33.45;;;23.70;;
56999;SDS011;42891;50.006;21.964;2023-05-19T19:42:42;32.53;;;23.30;;
56999;SDS011;42891;50.006;21.964;2023-05-19T19:46:43;33.00;;;23.55;;
56999;SDS011;42891;50.006;21.964;2023-05-19T19:50:43;30.95;;;22.83;;
56999;SDS011;42891;50.006;21.964;2023-05-19T19:54:43;30.85;;;22.98;;
56999;SDS011;42891;50.006;21.964;2023-05-19T19:58:44;32.47;;;24.30;;
56999;SDS011;42891;50.006;21.964;2023-05-19T20:02:44;41.58;;;24.75;;
56999;SDS011;42891;50.006;21.964;2023-05-19T20:06:45;39.05;;;24.83;;
56999;SDS011;42891;50.006;21.964;2023-05-19T20:10:48;32.70;;;23.90;;
56999;SDS011;42891;50.006;21.964;2023-05-19T20:14:48;38.70;;;24.17;;
56999;SDS011;42891;50.006;21.964;2023-05-19T20:18:52;35.67;;;24.42;;
56999;SDS011;42891;50.006;21.964;2023-05-19T20:22:52;36.72;;;23.02;;
56999;SDS011;42891;50.006;21.964;2023-05-19T20:26:52;34.58;;;24.08;;
56999;SDS011;42891;50.006;21.964;2023-05-19T20:30:53;32.60;;;23.10;;
56999;SDS011;42891;50.006;21.964;2023-05-19T20:34:53;34.83;;;22.50;;
56999;SDS011;42891;50.006;21.964;2023-05-19T20:38:53;33.60;;;22.60;;
56999;SDS011;42891;50.006;21.964;2023-05-19T20:42:54;30.48;;;22.60;;
56999;SDS011;42891;50.006;21.964;2023-05-19T20:46:55;30.15;;;22.75;;
56999;SDS011;42891;50.006;21.964;2023-05-19T20:50:56;30.40;;;22.88;;
56999;SDS011;42891;50.006;21.964;2023-05-19T20:54:57;36.50;;;23.55;;
56999;SDS011;42891;50.006;21.964;2023-05-19T20:58:57;32.00;;;23.75;;
56999;SDS011;42891;50.006;21.964;2023-05-19T21:02:57;27.13;;;21.43;;
56999;SDS011;42891;50.006;21.964;2023-05-19T21:06:58;29.88;;;21.27;;
56999;SDS011;42891;50.006;21.964;2023-05-19T21:10:59;31.33;;;21.75;;
56999;SDS011;42891;50.006;21.964;2023-05-19T21:15:00;33.10;;;23.13;;
56999;SDS011;42891;50.006;21.964;2023-05-19T21:19:01;30.13;;;21.45;;
56999;SDS011;42891;50.006;21.964;2023-05-19T21:23:01;38.03;;;23.45;;
56999;SDS011;42891;50.006;21.964;2023-05-19T21:27:01;32.15;;;22.60;;
56999;SDS011;42891;50.006;21.964;2023-05-19T21:31:02;35.03;;;23.05;;
56999;SDS011;42891;50.006;21.964;2023-05-19T21:35:04;36.40;;;22.55;;
56999;SDS011;42891;50.006;21.964;2023-05-19T21:39:05;32.38;;;22.52;;
56999;SDS011;42891;50.006;21.964;2023-05-19T21:43:05;31.05;;;20.92;;
56999;SDS011;42891;50.006;21.964;2023-05-19T21:47:05;33.40;;;23.35;;
56999;SDS011;42891;50.006;21.964;2023-05-19T21:51:06;33.20;;;21.67;;
56999;SDS011;42891;50.006;21.964;2023-05-19T21:55:06;26.33;;;20.33;;
56999;SDS011;42891;50.006;21.964;2023-05-19T21:59:10;30.48;;;22.17;;
56999;SDS011;42891;50.006;21.964;2023-05-19T22:03:10;30.88;;;20.83;;
56999;SDS011;42891;50.006;21.964;2023-05-19T22:07:11;30.52;;;19.52;;
56999;SDS011;42891;50.006;21.964;2023-05-19T22:11:12;30.35;;;21.83;;
56999;SDS011;42891;50.006;21.964;2023-05-19T22:15:13;31.27;;;21.33;;
56999;SDS011;42891;50.006;21.964;2023-05-19T22:19:14;30.33;;;20.38;;
56999;SDS011;42891;50.006;21.964;2023-05-19T22:23:15;27.90;;;19.98;;
56999;SDS011;42891;50.006;21.964;2023-05-19T22:27:15;34.03;;;22.02;;
56999;SDS011;42891;50.006;21.964;2023-05-19T22:31:16;27.10;;;20.45;;
56999;SDS011;42891;50.006;21.964;2023-05-19T22:35:16;36.50;;;21.88;;
56999;SDS011;42891;50.006;21.964;2023-05-19T22:39:17;31.90;;;22.52;;
56999;SDS011;42891;50.006;21.964;2023-05-19T22:43:18;32.63;;;22.10;;
56999;SDS011;42891;50.006;21.964;2023-05-19T22:47:18;35.47;;;21.55;;
56999;SDS011;42891;50.006;21.964;2023-05-19T22:51:18;31.67;;;21.58;;
56999;SDS011;42891;50.006;21.964;2023-05-19T22:55:19;31.77;;;21.30;;
56999;SDS011;42891;50.006;21.964;2023-05-19T22:59:20;31.80;;;21.55;;
56999;SDS011;42891;50.006;21.964;2023-05-19T23:03:20;31.10;;;22.75;;
56999;SDS011;42891;50.006;21.964;2023-05-19T23:07:20;36.00;;;22.37;;
56999;SDS011;42891;50.006;21.964;2023-05-19T23:11:21;33.85;;;21.70;;
56999;SDS011;42891;50.006;21.964;2023-05-19T23:15:21;32.28;;;23.05;;
56999;SDS011;42891;50.006;21.964;2023-05-19T23:19:21;40.30;;;24.40;;
56999;SDS011;42891;50.006;21.964;2023-05-19T23:23:22;41.25;;;25.38;;
56999;SDS011;42891;50.006;21.964;2023-05-19T23:27:22;34.50;;;22.53;;
56999;SDS011;42891;50.006;21.964;2023-05-19T23:31:22;33.03;;;23.08;;
56999;SDS011;42891;50.006;21.964;2023-05-19T23:35:23;37.58;;;23.60;;
56999;SDS011;42891;50.006;21.964;2023-05-19T23:39:23;39.55;;;24.88;;
56999;SDS011;42891;50.006;21.964;2023-05-19T23:43:24;39.08;;;24.23;;
56999;SDS011;42891;50.006;21.964;2023-05-19T23:47:24;42.42;;;24.85;;